sensor_id;sensor_type;location;lat;lon;timestamp;temperature;humidity
20977;DHT22;10647;51.016;3.720;2022-09-09T00:00:24;16.70;99.90
20977;DHT22;10647;51.016;3.720;2022-09-09T00:03:17;16.70;99.90
20977;DHT22;10647;51.016;3.720;2022-09-09T00:06:21;16.70;99.90
20977;DHT22;10647;51.016;3.720;2022-09-09T00:09:13;16.70;99.90
20977;DHT22;10647;51.016;3.720;2022-09-09T00:11:43;16.70;99.90
20977;DHT22;10647;51.016;3.720;2022-09-09T00:17:03;16.70;99.90
20977;DHT22;10647;51.016;3.720;2022-09-09T00:22:17;16.70;99.90
20977;DHT22;10647;51.016;3.720;2022-09-09T00:24:55;16.60;99.90
20977;DHT22;10647;51.016;3.720;2022-09-09T00:27:45;16.60;99.90
20977;DHT22;10647;51.016;3.720;2022-09-09T00:33:23;16.50;99.90
20977;DHT22;10647;51.016;3.720;2022-09-09T00:35:59;16.40;99.90
20977;DHT22;10647;51.016;3.720;2022-09-09T00:38:40;16.40;99.90
20977;DHT22;10647;51.016;3.720;2022-09-09T00:41:26;16.30;99.90
20977;DHT22;10647;51.016;3.720;2022-09-09T00:44:03;16.30;99.90
20977;DHT22;10647;51.016;3.720;2022-09-09T00:57:48;16.30;99.90
20977;DHT22;10647;51.016;3.720;2022-09-09T01:00:32;16.30;99.90
20977;DHT22;10647;51.016;3.720;2022-09-09T01:12:23;16.40;99.90
20977;DHT22;10647;51.016;3.720;2022-09-09T01:14:50;16.30;99.90
20977;DHT22;10647;51.016;3.720;2022-09-09T01:17:44;16.20;99.90
20977;DHT22;10647;51.016;3.720;2022-09-09T01:20:15;16.20;99.90
20977;DHT22;10647;51.016;3.720;2022-09-09T01:23:05;16.10;99.90
20977;DHT22;10647;51.016;3.720;2022-09-09T01:28:35;16.10;99.90
20977;DHT22;10647;51.016;3.720;2022-09-09T01:31:06;16.00;99.90
20977;DHT22;10647;51.016;3.720;2022-09-09T01:33:39;16.10;99.90
20977;DHT22;10647;51.016;3.720;2022-09-09T01:39:11;16.00;99.90
20977;DHT22;10647;51.016;3.720;2022-09-09T01:41:45;16.10;99.90
20977;DHT22;10647;51.016;3.720;2022-09-09T01:44:19;16.10;99.90
20977;DHT22;10647;51.016;3.720;2022-09-09T01:46:48;16.10;99.90
20977;DHT22;10647;51.016;3.720;2022-09-09T01:49:21;16.00;99.90
20977;DHT22;10647;51.016;3.720;2022-09-09T01:51:58;16.10;99.90
20977;DHT22;10647;51.016;3.720;2022-09-09T01:54:33;16.10;99.90
20977;DHT22;10647;51.016;3.720;2022-09-09T01:57:28;16.10;99.90
20977;DHT22;10647;51.016;3.720;2022-09-09T02:00:07;16.00;99.90
20977;DHT22;10647;51.016;3.720;2022-09-09T02:03:00;16.00;99.90
20977;DHT22;10647;51.016;3.720;2022-09-09T02:05:34;16.00;99.90
20977;DHT22;10647;51.016;3.720;2022-09-09T02:11:18;16.00;99.90
20977;DHT22;10647;51.016;3.720;2022-09-09T02:13:47;16.00;99.90
20977;DHT22;10647;51.016;3.720;2022-09-09T02:16:44;16.00;99.90
20977;DHT22;10647;51.016;3.720;2022-09-09T02:19:13;16.00;99.90
20977;DHT22;10647;51.016;3.720;2022-09-09T02:21:43;16.00;99.90
20977;DHT22;10647;51.016;3.720;2022-09-09T02:24:12;16.10;99.90
20977;DHT22;10647;51.016;3.720;2022-09-09T02:27:01;16.20;99.90
20977;DHT22;10647;51.016;3.720;2022-09-09T02:29:33;16.20;99.90
20977;DHT22;10647;51.016;3.720;2022-09-09T02:32:04;16.30;99.90
20977;DHT22;10647;51.016;3.720;2022-09-09T02:34:41;16.40;99.90
20977;DHT22;10647;51.016;3.720;2022-09-09T02:37:10;16.40;99.90
20977;DHT22;10647;51.016;3.720;2022-09-09T02:39:44;16.40;99.90
20977;DHT22;10647;51.016;3.720;2022-09-09T02:42:13;16.40;99.90
20977;DHT22;10647;51.016;3.720;2022-09-09T02:44:44;16.40;99.90
20977;DHT22;10647;51.016;3.720;2022-09-09T02:47:47;16.40;99.90
20977;DHT22;10647;51.016;3.720;2022-09-09T02:50:19;16.40;99.90
20977;DHT22;10647;51.016;3.720;2022-09-09T02:53:12;16.30;99.90
20977;DHT22;10647;51.016;3.720;2022-09-09T02:55:54;16.40;99.90
20977;DHT22;10647;51.016;3.720;2022-09-09T02:58:20;16.40;99.90
20977;DHT22;10647;51.016;3.720;2022-09-09T03:00:51;16.40;99.90
20977;DHT22;10647;51.016;3.720;2022-09-09T03:03:19;16.40;99.90
20977;DHT22;10647;51.016;3.720;2022-09-09T03:05:54;16.40;99.90
20977;DHT22;10647;51.016;3.720;2022-09-09T03:08:23;16.40;99.90
20977;DHT22;10647;51.016;3.720;2022-09-09T03:10:58;16.40;99.90
20977;DHT22;10647;51.016;3.720;2022-09-09T03:13:29;16.40;99.90
20977;DHT22;10647;51.016;3.720;2022-09-09T03:16:02;16.40;99.90
20977;DHT22;10647;51.016;3.720;2022-09-09T03:18:31;16.40;99.90
20977;DHT22;10647;51.016;3.720;2022-09-09T03:21:01;16.50;99.90
20977;DHT22;10647;51.016;3.720;2022-09-09T03:23:28;16.50;99.90
20977;DHT22;10647;51.016;3.720;2022-09-09T03:25:56;16.50;99.90
20977;DHT22;10647;51.016;3.720;2022-09-09T03:28:25;16.60;99.90
20977;DHT22;10647;51.016;3.720;2022-09-09T03:30:58;16.60;99.90
20977;DHT22;10647;51.016;3.720;2022-09-09T03:33:25;16.70;99.90
20977;DHT22;10647;51.016;3.720;2022-09-09T03:35:52;16.80;99.90
20977;DHT22;10647;51.016;3.720;2022-09-09T03:38:25;16.80;99.90
20977;DHT22;10647;51.016;3.720;2022-09-09T03:40:56;16.90;99.90
20977;DHT22;10647;51.016;3.720;2022-09-09T03:43:25;16.90;99.90
20977;DHT22;10647;51.016;3.720;2022-09-09T03:45:53;17.00;99.90
20977;DHT22;10647;51.016;3.720;2022-09-09T03:48:24;17.00;99.90
20977;DHT22;10647;51.016;3.720;2022-09-09T03:50:53;17.00;99.90
20977;DHT22;10647;51.016;3.720;2022-09-09T03:53:28;17.00;99.90
20977;DHT22;10647;51.016;3.720;2022-09-09T03:55:58;17.00;99.90
20977;DHT22;10647;51.016;3.720;2022-09-09T03:58:28;17.00;99.90
20977;DHT22;10647;51.016;3.720;2022-09-09T04:03:50;17.00;99.90
20977;DHT22;10647;51.016;3.720;2022-09-09T04:06:19;17.00;99.90
20977;DHT22;10647;51.016;3.720;2022-09-09T04:08:47;16.90;99.90
20977;DHT22;10647;51.016;3.720;2022-09-09T04:11:21;16.90;99.90
20977;DHT22;10647;51.016;3.720;2022-09-09T04:13:49;17.00;99.90
20977;DHT22;10647;51.016;3.720;2022-09-09T04:16:16;17.00;99.90
20977;DHT22;10647;51.016;3.720;2022-09-09T04:18:44;17.10;99.90
20977;DHT22;10647;51.016;3.720;2022-09-09T04:21:18;17.10;99.90
20977;DHT22;10647;51.016;3.720;2022-09-09T04:23:51;17.10;99.90
20977;DHT22;10647;51.016;3.720;2022-09-09T04:26:24;17.10;99.90
20977;DHT22;10647;51.016;3.720;2022-09-09T04:28:58;17.20;99.90
20977;DHT22;10647;51.016;3.720;2022-09-09T04:31:25;17.10;99.90
20977;DHT22;10647;51.016;3.720;2022-09-09T04:33:53;17.20;99.90
20977;DHT22;10647;51.016;3.720;2022-09-09T04:36:25;17.20;99.90
20977;DHT22;10647;51.016;3.720;2022-09-09T04:38:54;17.10;99.90
20977;DHT22;10647;51.016;3.720;2022-09-09T04:41:22;17.20;99.90
20977;DHT22;10647;51.016;3.720;2022-09-09T04:43:50;17.20;99.90
20977;DHT22;10647;51.016;3.720;2022-09-09T04:46:24;17.20;99.90
20977;DHT22;10647;51.016;3.720;2022-09-09T04:48:53;17.10;99.90
20977;DHT22;10647;51.016;3.720;2022-09-09T04:51:20;17.10;99.90
20977;DHT22;10647;51.016;3.720;2022-09-09T04:53:48;17.20;99.90
20977;DHT22;10647;51.016;3.720;2022-09-09T04:56:17;17.20;99.90
20977;DHT22;10647;51.016;3.720;2022-09-09T04:58:45;17.10;99.90
20977;DHT22;10647;51.016;3.720;2022-09-09T05:01:17;17.10;99.90
20977;DHT22;10647;51.016;3.720;2022-09-09T05:03:46;17.10;99.90
20977;DHT22;10647;51.016;3.720;2022-09-09T05:06:16;17.10;99.90
20977;DHT22;10647;51.016;3.720;2022-09-09T05:08:45;17.10;99.90
20977;DHT22;10647;51.016;3.720;2022-09-09T05:11:20;17.10;99.90
20977;DHT22;10647;51.016;3.720;2022-09-09T05:13:56;17.20;99.90
20977;DHT22;10647;51.016;3.720;2022-09-09T05:16:25;17.20;99.90
20977;DHT22;10647;51.016;3.720;2022-09-09T05:18:56;17.30;99.90
20977;DHT22;10647;51.016;3.720;2022-09-09T05:21:37;17.20;99.90
20977;DHT22;10647;51.016;3.720;2022-09-09T05:24:14;17.40;99.90
20977;DHT22;10647;51.016;3.720;2022-09-09T05:26:47;17.40;99.90
20977;DHT22;10647;51.016;3.720;2022-09-09T05:29:16;17.40;99.90
20977;DHT22;10647;51.016;3.720;2022-09-09T05:31:46;17.40;99.90
20977;DHT22;10647;51.016;3.720;2022-09-09T05:34:13;17.40;99.90
20977;DHT22;10647;51.016;3.720;2022-09-09T05:36:41;17.40;99.90
20977;DHT22;10647;51.016;3.720;2022-09-09T05:39:08;17.40;99.90
20977;DHT22;10647;51.016;3.720;2022-09-09T05:41:38;17.40;99.90
20977;DHT22;10647;51.016;3.720;2022-09-09T05:44:06;17.40;99.90
20977;DHT22;10647;51.016;3.720;2022-09-09T05:46:34;17.50;99.90
20977;DHT22;10647;51.016;3.720;2022-09-09T05:49:07;17.60;99.90
20977;DHT22;10647;51.016;3.720;2022-09-09T05:51:41;17.70;99.90
20977;DHT22;10647;51.016;3.720;2022-09-09T05:54:15;17.80;99.90
20977;DHT22;10647;51.016;3.720;2022-09-09T05:56:43;17.80;99.90
20977;DHT22;10647;51.016;3.720;2022-09-09T05:59:11;17.90;99.90
20977;DHT22;10647;51.016;3.720;2022-09-09T06:01:44;18.00;99.90
20977;DHT22;10647;51.016;3.720;2022-09-09T06:04:12;18.10;99.90
20977;DHT22;10647;51.016;3.720;2022-09-09T06:06:42;18.10;99.90
20977;DHT22;10647;51.016;3.720;2022-09-09T06:09:09;18.10;99.90
20977;DHT22;10647;51.016;3.720;2022-09-09T06:11:39;18.10;99.90
20977;DHT22;10647;51.016;3.720;2022-09-09T06:14:07;18.00;99.90
20977;DHT22;10647;51.016;3.720;2022-09-09T06:16:36;17.90;99.90
20977;DHT22;10647;51.016;3.720;2022-09-09T06:19:09;17.70;99.90
20977;DHT22;10647;51.016;3.720;2022-09-09T06:21:39;17.70;99.90
20977;DHT22;10647;51.016;3.720;2022-09-09T06:24:13;17.50;99.90
20977;DHT22;10647;51.016;3.720;2022-09-09T06:26:42;17.60;99.90
20977;DHT22;10647;51.016;3.720;2022-09-09T06:29:12;17.60;99.90
20977;DHT22;10647;51.016;3.720;2022-09-09T06:31:40;17.70;99.90
20977;DHT22;10647;51.016;3.720;2022-09-09T06:34:10;17.80;99.90
20977;DHT22;10647;51.016;3.720;2022-09-09T06:36:39;17.90;99.90
20977;DHT22;10647;51.016;3.720;2022-09-09T06:39:07;18.00;99.90
20977;DHT22;10647;51.016;3.720;2022-09-09T06:41:36;18.20;99.90
20977;DHT22;10647;51.016;3.720;2022-09-09T06:44:13;18.40;99.90
20977;DHT22;10647;51.016;3.720;2022-09-09T06:46:50;18.50;99.90
20977;DHT22;10647;51.016;3.720;2022-09-09T06:49:29;18.70;99.90
20977;DHT22;10647;51.016;3.720;2022-09-09T06:52:00;18.80;99.90
20977;DHT22;10647;51.016;3.720;2022-09-09T06:54:27;19.00;99.90
20977;DHT22;10647;51.016;3.720;2022-09-09T06:56:55;19.10;99.90
20977;DHT22;10647;51.016;3.720;2022-09-09T06:59:28;19.30;99.90
20977;DHT22;10647;51.016;3.720;2022-09-09T07:02:03;19.40;99.90
20977;DHT22;10647;51.016;3.720;2022-09-09T07:04:34;19.60;99.90
20977;DHT22;10647;51.016;3.720;2022-09-09T07:07:03;19.70;99.90
20977;DHT22;10647;51.016;3.720;2022-09-09T07:09:33;19.80;99.90
20977;DHT22;10647;51.016;3.720;2022-09-09T07:12:03;19.80;99.90
20977;DHT22;10647;51.016;3.720;2022-09-09T07:14:32;19.80;99.90
20977;DHT22;10647;51.016;3.720;2022-09-09T07:17:07;19.70;99.90
20977;DHT22;10647;51.016;3.720;2022-09-09T07:19:35;19.50;99.90
20977;DHT22;10647;51.016;3.720;2022-09-09T07:22:08;19.60;99.90
20977;DHT22;10647;51.016;3.720;2022-09-09T07:24:40;19.80;99.90
20977;DHT22;10647;51.016;3.720;2022-09-09T07:27:07;20.20;99.90
20977;DHT22;10647;51.016;3.720;2022-09-09T07:29:35;20.60;99.90
20977;DHT22;10647;51.016;3.720;2022-09-09T07:32:03;20.80;99.90
20977;DHT22;10647;51.016;3.720;2022-09-09T07:34:31;21.00;99.90
20977;DHT22;10647;51.016;3.720;2022-09-09T07:36:58;21.10;99.90
20977;DHT22;10647;51.016;3.720;2022-09-09T07:39:26;21.10;99.90
20977;DHT22;10647;51.016;3.720;2022-09-09T07:41:53;21.10;99.90
20977;DHT22;10647;51.016;3.720;2022-09-09T07:44:23;21.20;99.90
20977;DHT22;10647;51.016;3.720;2022-09-09T07:47:00;21.20;99.90
20977;DHT22;10647;51.016;3.720;2022-09-09T07:49:31;21.10;99.90
20977;DHT22;10647;51.016;3.720;2022-09-09T07:51:59;20.90;99.90
20977;DHT22;10647;51.016;3.720;2022-09-09T07:54:28;20.70;99.90
20977;DHT22;10647;51.016;3.720;2022-09-09T07:56:56;20.50;99.90
20977;DHT22;10647;51.016;3.720;2022-09-09T08:02:13;20.00;99.90
20977;DHT22;10647;51.016;3.720;2022-09-09T08:04:47;19.70;99.90
20977;DHT22;10647;51.016;3.720;2022-09-09T08:07:16;19.50;99.90
20977;DHT22;10647;51.016;3.720;2022-09-09T08:09:49;19.20;99.90
20977;DHT22;10647;51.016;3.720;2022-09-09T08:12:17;19.00;99.90
20977;DHT22;10647;51.016;3.720;2022-09-09T08:14:44;18.80;99.90
20977;DHT22;10647;51.016;3.720;2022-09-09T08:17:13;18.70;99.90
20977;DHT22;10647;51.016;3.720;2022-09-09T08:19:46;18.70;99.90
20977;DHT22;10647;51.016;3.720;2022-09-09T08:22:19;18.70;99.90
20977;DHT22;10647;51.016;3.720;2022-09-09T08:24:51;18.70;99.90
20977;DHT22;10647;51.016;3.720;2022-09-09T08:27:18;18.60;99.90
20977;DHT22;10647;51.016;3.720;2022-09-09T08:29:46;18.60;99.90
20977;DHT22;10647;51.016;3.720;2022-09-09T08:32:13;18.60;99.90
20977;DHT22;10647;51.016;3.720;2022-09-09T08:34:48;18.60;99.90
20977;DHT22;10647;51.016;3.720;2022-09-09T08:37:16;18.70;99.90
20977;DHT22;10647;51.016;3.720;2022-09-09T08:39:46;18.70;99.90
20977;DHT22;10647;51.016;3.720;2022-09-09T08:42:41;18.70;99.90
20977;DHT22;10647;51.016;3.720;2022-09-09T08:45:34;18.70;99.90
20977;DHT22;10647;51.016;3.720;2022-09-09T08:48:09;18.80;99.90
20977;DHT22;10647;51.016;3.720;2022-09-09T08:50:41;19.00;99.90
20977;DHT22;10647;51.016;3.720;2022-09-09T08:53:27;19.20;99.90
20977;DHT22;10647;51.016;3.720;2022-09-09T08:56:00;19.20;99.90
20977;DHT22;10647;51.016;3.720;2022-09-09T08:58:33;19.10;99.90
20977;DHT22;10647;51.016;3.720;2022-09-09T09:04:00;18.90;99.90
20977;DHT22;10647;51.016;3.720;2022-09-09T09:06:43;19.00;99.90
20977;DHT22;10647;51.016;3.720;2022-09-09T09:12:00;19.00;99.90
20977;DHT22;10647;51.016;3.720;2022-09-09T09:14:30;19.20;99.90
20977;DHT22;10647;51.016;3.720;2022-09-09T09:19:35;19.90;99.90
20977;DHT22;10647;51.016;3.720;2022-09-09T09:22:21;20.50;99.90
20977;DHT22;10647;51.016;3.720;2022-09-09T09:25:17;20.80;99.90
20977;DHT22;10647;51.016;3.720;2022-09-09T09:28:03;21.00;99.90
20977;DHT22;10647;51.016;3.720;2022-09-09T09:30:39;21.40;99.90
20977;DHT22;10647;51.016;3.720;2022-09-09T09:33:32;21.60;99.90
20977;DHT22;10647;51.016;3.720;2022-09-09T09:36:41;21.90;99.90
20977;DHT22;10647;51.016;3.720;2022-09-09T09:39:09;22.30;99.90
20977;DHT22;10647;51.016;3.720;2022-09-09T09:41:39;22.40;99.90
20977;DHT22;10647;51.016;3.720;2022-09-09T09:44:24;22.40;99.90
20977;DHT22;10647;51.016;3.720;2022-09-09T09:46:53;22.20;99.90
20977;DHT22;10647;51.016;3.720;2022-09-09T09:49:22;22.00;99.90
20977;DHT22;10647;51.016;3.720;2022-09-09T09:51:49;21.80;99.90
20977;DHT22;10647;51.016;3.720;2022-09-09T09:54:26;21.70;99.90
20977;DHT22;10647;51.016;3.720;2022-09-09T09:56:55;21.50;99.90
20977;DHT22;10647;51.016;3.720;2022-09-09T09:59:38;21.40;99.90
20977;DHT22;10647;51.016;3.720;2022-09-09T10:02:21;21.40;99.90
20977;DHT22;10647;51.016;3.720;2022-09-09T10:05:06;21.50;99.90
20977;DHT22;10647;51.016;3.720;2022-09-09T10:07:34;21.40;99.90
20977;DHT22;10647;51.016;3.720;2022-09-09T10:10:03;21.40;99.90
20977;DHT22;10647;51.016;3.720;2022-09-09T10:27:04;22.00;99.90
20977;DHT22;10647;51.016;3.720;2022-09-09T10:35:04;21.90;99.90
20977;DHT22;10647;51.016;3.720;2022-09-09T10:40:33;22.20;99.90
20977;DHT22;10647;51.016;3.720;2022-09-09T10:43:11;22.50;99.90
20977;DHT22;10647;51.016;3.720;2022-09-09T10:51:02;23.70;99.90
20977;DHT22;10647;51.016;3.720;2022-09-09T10:56:16;23.50;99.90
20977;DHT22;10647;51.016;3.720;2022-09-09T10:59:05;23.40;99.90
20977;DHT22;10647;51.016;3.720;2022-09-09T11:01:48;23.40;99.90
20977;DHT22;10647;51.016;3.720;2022-09-09T11:04:25;23.30;99.90
20977;DHT22;10647;51.016;3.720;2022-09-09T11:06:54;23.20;99.90
20977;DHT22;10647;51.016;3.720;2022-09-09T11:09:26;23.40;99.90
20977;DHT22;10647;51.016;3.720;2022-09-09T11:11:54;23.40;99.90
20977;DHT22;10647;51.016;3.720;2022-09-09T11:14:47;23.80;99.90
20977;DHT22;10647;51.016;3.720;2022-09-09T11:17:21;24.00;99.90
20977;DHT22;10647;51.016;3.720;2022-09-09T11:19:55;24.20;99.90
20977;DHT22;10647;51.016;3.720;2022-09-09T11:22:46;24.40;99.90
20977;DHT22;10647;51.016;3.720;2022-09-09T11:25:26;24.70;99.90
20977;DHT22;10647;51.016;3.720;2022-09-09T11:39:23;25.50;99.90
20977;DHT22;10647;51.016;3.720;2022-09-09T11:41:54;25.80;99.90
20977;DHT22;10647;51.016;3.720;2022-09-09T11:44:29;26.00;99.90
20977;DHT22;10647;51.016;3.720;2022-09-09T11:46:58;25.90;99.90
20977;DHT22;10647;51.016;3.720;2022-09-09T11:49:40;25.50;99.90
20977;DHT22;10647;51.016;3.720;2022-09-09T11:52:24;25.00;99.90
20977;DHT22;10647;51.016;3.720;2022-09-09T11:54:54;24.60;99.90
20977;DHT22;10647;51.016;3.720;2022-09-09T11:57:35;24.40;99.90
20977;DHT22;10647;51.016;3.720;2022-09-09T12:02:59;24.70;99.90
20977;DHT22;10647;51.016;3.720;2022-09-09T12:05:50;25.50;99.90
20977;DHT22;10647;51.016;3.720;2022-09-09T12:08:28;25.70;99.90
20977;DHT22;10647;51.016;3.720;2022-09-09T12:10:59;25.70;99.90
20977;DHT22;10647;51.016;3.720;2022-09-09T12:13:29;26.10;99.90
20977;DHT22;10647;51.016;3.720;2022-09-09T12:15:59;26.30;99.90
20977;DHT22;10647;51.016;3.720;2022-09-09T12:18:37;26.40;99.90
20977;DHT22;10647;51.016;3.720;2022-09-09T12:21:14;26.10;99.90
20977;DHT22;10647;51.016;3.720;2022-09-09T12:23:50;26.40;99.90
20977;DHT22;10647;51.016;3.720;2022-09-09T12:26:43;26.70;99.90
20977;DHT22;10647;51.016;3.720;2022-09-09T12:29:30;26.90;99.90
20977;DHT22;10647;51.016;3.720;2022-09-09T12:32:11;26.70;99.90
20977;DHT22;10647;51.016;3.720;2022-09-09T12:34:59;26.60;99.90
20977;DHT22;10647;51.016;3.720;2022-09-09T12:37:32;26.70;99.90
20977;DHT22;10647;51.016;3.720;2022-09-09T12:40:14;27.10;99.90
20977;DHT22;10647;51.016;3.720;2022-09-09T12:42:41;27.20;99.90
20977;DHT22;10647;51.016;3.720;2022-09-09T12:45:22;27.10;99.90
20977;DHT22;10647;51.016;3.720;2022-09-09T12:48:06;27.10;99.90
20977;DHT22;10647;51.016;3.720;2022-09-09T12:50:49;27.10;99.90
20977;DHT22;10647;51.016;3.720;2022-09-09T12:53:15;26.70;99.90
20977;DHT22;10647;51.016;3.720;2022-09-09T12:55:54;26.10;99.90
20977;DHT22;10647;51.016;3.720;2022-09-09T12:58:26;25.70;99.90
20977;DHT22;10647;51.016;3.720;2022-09-09T13:00:56;25.20;99.90
20977;DHT22;10647;51.016;3.720;2022-09-09T13:03:24;24.90;99.90
20977;DHT22;10647;51.016;3.720;2022-09-09T13:05:57;24.60;99.90
20977;DHT22;10647;51.016;3.720;2022-09-09T13:08:27;24.30;99.90
20977;DHT22;10647;51.016;3.720;2022-09-09T13:11:00;25.00;99.90
20977;DHT22;10647;51.016;3.720;2022-09-09T13:16:07;25.70;99.90
20977;DHT22;10647;51.016;3.720;2022-09-09T13:18:40;25.90;99.90
20977;DHT22;10647;51.016;3.720;2022-09-09T13:21:14;26.90;99.90
20977;DHT22;10647;51.016;3.720;2022-09-09T13:23:48;27.20;99.90
20977;DHT22;10647;51.016;3.720;2022-09-09T13:26:26;26.90;99.90
20977;DHT22;10647;51.016;3.720;2022-09-09T13:29:16;26.80;99.90
20977;DHT22;10647;51.016;3.720;2022-09-09T13:31:45;26.80;99.90
20977;DHT22;10647;51.016;3.720;2022-09-09T13:37:04;26.70;99.90
20977;DHT22;10647;51.016;3.720;2022-09-09T13:39:37;26.70;99.90
20977;DHT22;10647;51.016;3.720;2022-09-09T13:42:05;26.70;99.90
20977;DHT22;10647;51.016;3.720;2022-09-09T13:44:36;26.60;99.90
20977;DHT22;10647;51.016;3.720;2022-09-09T13:47:16;26.10;99.90
20977;DHT22;10647;51.016;3.720;2022-09-09T13:49:35;25.70;99.90
20977;DHT22;10647;51.016;3.720;2022-09-09T13:52:14;25.50;99.90
20977;DHT22;10647;51.016;3.720;2022-09-09T13:54:50;25.20;99.90
20977;DHT22;10647;51.016;3.720;2022-09-09T13:57:20;25.20;99.90
20977;DHT22;10647;51.016;3.720;2022-09-09T13:59:49;25.30;99.90
20977;DHT22;10647;51.016;3.720;2022-09-09T14:02:17;25.60;99.90
20977;DHT22;10647;51.016;3.720;2022-09-09T14:04:50;25.60;99.90
20977;DHT22;10647;51.016;3.720;2022-09-09T14:07:23;25.40;99.90
20977;DHT22;10647;51.016;3.720;2022-09-09T14:09:51;25.00;99.90
20977;DHT22;10647;51.016;3.720;2022-09-09T14:12:28;24.70;99.90
20977;DHT22;10647;51.016;3.720;2022-09-09T14:14:56;24.50;99.90
20977;DHT22;10647;51.016;3.720;2022-09-09T14:17:31;24.40;99.90
20977;DHT22;10647;51.016;3.720;2022-09-09T14:19:59;24.30;99.90
20977;DHT22;10647;51.016;3.720;2022-09-09T14:22:29;24.40;99.90
20977;DHT22;10647;51.016;3.720;2022-09-09T14:25:03;25.20;99.90
20977;DHT22;10647;51.016;3.720;2022-09-09T14:27:31;25.40;99.90
20977;DHT22;10647;51.016;3.720;2022-09-09T14:29:59;27.80;99.90
20977;DHT22;10647;51.016;3.720;2022-09-09T14:32:27;30.10;99.90
20977;DHT22;10647;51.016;3.720;2022-09-09T14:34:55;29.90;99.90
20977;DHT22;10647;51.016;3.720;2022-09-09T14:37:25;29.20;99.90
20977;DHT22;10647;51.016;3.720;2022-09-09T14:39:52;29.00;99.90
20977;DHT22;10647;51.016;3.720;2022-09-09T14:42:20;29.00;99.90
20977;DHT22;10647;51.016;3.720;2022-09-09T14:44:48;31.10;99.90
20977;DHT22;10647;51.016;3.720;2022-09-09T14:47:16;32.50;99.90
20977;DHT22;10647;51.016;3.720;2022-09-09T14:49:43;31.60;99.90
20977;DHT22;10647;51.016;3.720;2022-09-09T14:52:12;30.90;99.90
20977;DHT22;10647;51.016;3.720;2022-09-09T14:54:39;30.10;99.90
20977;DHT22;10647;51.016;3.720;2022-09-09T14:57:07;29.60;99.90
20977;DHT22;10647;51.016;3.720;2022-09-09T14:59:34;29.20;99.90
20977;DHT22;10647;51.016;3.720;2022-09-09T15:02:02;29.20;99.90
20977;DHT22;10647;51.016;3.720;2022-09-09T15:04:30;29.30;99.90
20977;DHT22;10647;51.016;3.720;2022-09-09T15:06:58;29.20;99.90
20977;DHT22;10647;51.016;3.720;2022-09-09T15:09:25;29.20;99.90
20977;DHT22;10647;51.016;3.720;2022-09-09T15:11:53;29.10;99.90
20977;DHT22;10647;51.016;3.720;2022-09-09T15:14:21;28.90;99.90
20977;DHT22;10647;51.016;3.720;2022-09-09T15:16:49;29.10;99.90
20977;DHT22;10647;51.016;3.720;2022-09-09T15:19:16;29.00;99.90
20977;DHT22;10647;51.016;3.720;2022-09-09T15:21:43;28.70;99.90
20977;DHT22;10647;51.016;3.720;2022-09-09T15:24:11;28.20;99.90
20977;DHT22;10647;51.016;3.720;2022-09-09T15:26:40;27.90;99.90
20977;DHT22;10647;51.016;3.720;2022-09-09T15:29:07;27.40;99.90
20977;DHT22;10647;51.016;3.720;2022-09-09T15:31:41;26.60;99.90
20977;DHT22;10647;51.016;3.720;2022-09-09T15:34:09;26.00;99.90
20977;DHT22;10647;51.016;3.720;2022-09-09T15:36:44;25.50;99.90
20977;DHT22;10647;51.016;3.720;2022-09-09T15:39:19;25.20;99.90
20977;DHT22;10647;51.016;3.720;2022-09-09T15:41:44;24.90;99.90
20977;DHT22;10647;51.016;3.720;2022-09-09T15:44:13;24.60;99.90
20977;DHT22;10647;51.016;3.720;2022-09-09T15:46:51;24.30;99.90
20977;DHT22;10647;51.016;3.720;2022-09-09T15:49:17;24.20;99.90
20977;DHT22;10647;51.016;3.720;2022-09-09T15:51:47;24.00;99.90
20977;DHT22;10647;51.016;3.720;2022-09-09T15:54:18;24.00;99.90
20977;DHT22;10647;51.016;3.720;2022-09-09T15:56:51;24.20;99.90
20977;DHT22;10647;51.016;3.720;2022-09-09T15:59:19;24.20;99.90
20977;DHT22;10647;51.016;3.720;2022-09-09T16:01:46;24.50;99.90
20977;DHT22;10647;51.016;3.720;2022-09-09T16:04:14;24.80;99.90
20977;DHT22;10647;51.016;3.720;2022-09-09T16:06:43;25.00;99.90
20977;DHT22;10647;51.016;3.720;2022-09-09T16:09:10;25.20;99.90
20977;DHT22;10647;51.016;3.720;2022-09-09T16:11:38;25.60;99.90
20977;DHT22;10647;51.016;3.720;2022-09-09T16:14:06;25.80;99.90
20977;DHT22;10647;51.016;3.720;2022-09-09T16:16:34;26.00;99.90
20977;DHT22;10647;51.016;3.720;2022-09-09T16:19:11;26.00;99.90
20977;DHT22;10647;51.016;3.720;2022-09-09T16:21:44;26.10;99.90
20977;DHT22;10647;51.016;3.720;2022-09-09T16:24:14;25.90;99.90
20977;DHT22;10647;51.016;3.720;2022-09-09T16:26:44;25.70;99.90
20977;DHT22;10647;51.016;3.720;2022-09-09T16:29:13;25.50;99.90
20977;DHT22;10647;51.016;3.720;2022-09-09T16:31:41;25.10;99.90
20977;DHT22;10647;51.016;3.720;2022-09-09T16:34:10;24.90;99.90
20977;DHT22;10647;51.016;3.720;2022-09-09T16:36:39;24.80;99.90
20977;DHT22;10647;51.016;3.720;2022-09-09T16:39:10;24.90;99.90
20977;DHT22;10647;51.016;3.720;2022-09-09T16:41:40;25.00;99.90
20977;DHT22;10647;51.016;3.720;2022-09-09T16:44:09;25.00;99.90
20977;DHT22;10647;51.016;3.720;2022-09-09T16:46:42;24.80;99.90
20977;DHT22;10647;51.016;3.720;2022-09-09T16:49:12;24.40;99.90
20977;DHT22;10647;51.016;3.720;2022-09-09T16:54:32;23.80;99.90
20977;DHT22;10647;51.016;3.720;2022-09-09T16:57:01;23.50;99.90
20977;DHT22;10647;51.016;3.720;2022-09-09T16:59:29;23.30;99.90
20977;DHT22;10647;51.016;3.720;2022-09-09T17:01:58;23.10;99.90
20977;DHT22;10647;51.016;3.720;2022-09-09T17:04:27;22.70;99.90
20977;DHT22;10647;51.016;3.720;2022-09-09T17:06:55;22.30;99.90
20977;DHT22;10647;51.016;3.720;2022-09-09T17:09:25;21.80;99.90
20977;DHT22;10647;51.016;3.720;2022-09-09T17:11:54;21.60;99.90
20977;DHT22;10647;51.016;3.720;2022-09-09T17:14:22;21.40;99.90
20977;DHT22;10647;51.016;3.720;2022-09-09T17:16:50;21.30;99.90
20977;DHT22;10647;51.016;3.720;2022-09-09T17:19:18;21.20;99.90
20977;DHT22;10647;51.016;3.720;2022-09-09T17:21:45;21.10;99.90
20977;DHT22;10647;51.016;3.720;2022-09-09T17:24:16;21.20;99.90
20977;DHT22;10647;51.016;3.720;2022-09-09T17:26:49;21.40;99.90
20977;DHT22;10647;51.016;3.720;2022-09-09T17:29:17;21.40;99.90
20977;DHT22;10647;51.016;3.720;2022-09-09T17:31:44;21.40;99.90
20977;DHT22;10647;51.016;3.720;2022-09-09T17:34:12;21.50;99.90
20977;DHT22;10647;51.016;3.720;2022-09-09T17:36:39;21.50;99.90
20977;DHT22;10647;51.016;3.720;2022-09-09T17:39:07;21.40;99.90
20977;DHT22;10647;51.016;3.720;2022-09-09T17:41:39;21.30;99.90
20977;DHT22;10647;51.016;3.720;2022-09-09T17:44:07;21.30;99.90
20977;DHT22;10647;51.016;3.720;2022-09-09T17:46:38;21.10;99.90
20977;DHT22;10647;51.016;3.720;2022-09-09T17:49:09;21.10;99.90